createdAt,value
2023-05-09T00:00:13.199Z,1.8400000000000003
2023-05-09T00:03:12.836Z,2.38
2023-05-09T00:06:08.363Z,1.9600000000000002
2023-05-09T00:09:04.946Z,1.8800000000000001
2023-05-09T00:12:01.424Z,1.6600000000000001
2023-05-09T00:14:56.988Z,1.5799999999999998
2023-05-09T00:17:54.609Z,1.8399999999999999
2023-05-09T00:20:51.094Z,1.58
2023-05-09T00:23:47.672Z,1.5399999999999998
2023-05-09T00:26:43.224Z,1.94
2023-05-09T00:29:38.753Z,1.8199999999999998
2023-05-09T00:32:34.395Z,1.6199999999999999
2023-05-09T00:35:31.872Z,1.8800000000000001
2023-05-09T00:38:27.457Z,2.2800000000000002
2023-05-09T00:41:23.056Z,2.2
2023-05-09T00:44:18.598Z,2.04
2023-05-09T00:47:15.101Z,2.1399999999999997
2023-05-09T00:50:11.699Z,1.98
2023-05-09T00:53:09.257Z,2.16
2023-05-09T00:56:05.820Z,1.9600000000000002
2023-05-09T00:59:01.357Z,1.6600000000000001
2023-05-09T01:01:57.963Z,1.9
2023-05-09T01:04:53.506Z,2.18
2023-05-09T01:08:00.053Z,2.0799999999999996
2023-05-09T01:11:01.560Z,1.98
2023-05-09T01:14:06.123Z,2.04
2023-05-09T01:17:11.681Z,2.22
2023-05-09T01:20:19.197Z,1.94
2023-05-09T01:23:26.738Z,2.42
2023-05-09T01:26:32.255Z,1.98
2023-05-09T01:29:37.809Z,2.2399999999999998
2023-05-09T01:32:37.369Z,2.06
2023-05-09T01:35:37.957Z,2.44
2023-05-09T01:38:37.457Z,2.5
2023-05-09T01:41:38.001Z,1.8199999999999998
2023-05-09T01:44:38.539Z,2.2600000000000002
2023-05-09T01:47:36.131Z,2.12
2023-05-09T01:50:35.670Z,2.44
2023-05-09T01:53:34.228Z,1.7600000000000002
2023-05-09T01:56:31.747Z,1.92
2023-05-09T01:59:30.309Z,2.3
2023-05-09T02:02:27.960Z,2.0799999999999996
2023-05-09T02:05:27.431Z,2.5599999999999996
2023-05-09T02:08:25.004Z,2.2399999999999998
2023-05-09T02:11:22.522Z,2.2399999999999998
2023-05-09T02:14:18.126Z,2.1399999999999997
2023-05-09T02:17:18.667Z,2.1399999999999997
2023-05-09T02:20:14.220Z,2.38
2023-05-09T02:23:11.743Z,2.7
2023-05-09T02:26:08.334Z,2.2
2023-05-09T02:29:05.957Z,2.2600000000000002
2023-05-09T02:32:03.498Z,2.1399999999999997
2023-05-09T02:35:01.001Z,2.1199999999999997
2023-05-09T02:37:58.566Z,2.66
2023-05-09T02:40:56.110Z,2.48
2023-05-09T02:43:51.642Z,2.5799999999999996
2023-05-09T02:46:47.238Z,2.7800000000000002
2023-05-09T02:49:43.811Z,2.46
2023-05-09T02:52:39.337Z,2.3200000000000003
2023-05-09T02:55:35.900Z,2.38
2023-05-09T02:58:31.468Z,2.42
2023-05-09T03:01:27.091Z,2.1399999999999997
2023-05-09T03:04:22.571Z,2.3600000000000003
2023-05-09T03:07:18.195Z,2.3600000000000003
2023-05-09T03:10:14.724Z,2.4
2023-05-09T03:13:10.286Z,2.3600000000000003
2023-05-09T03:16:06.865Z,2.36
2023-05-09T03:19:03.416Z,2.02
2023-05-09T03:21:58.952Z,2.38
2023-05-09T03:24:54.536Z,2.3600000000000003
2023-05-09T03:27:50.099Z,2.4
2023-05-09T03:30:46.618Z,2.54
2023-05-09T03:33:42.211Z,2.4
2023-05-09T03:36:38.757Z,2.5799999999999996
2023-05-09T03:39:34.293Z,2.7400000000000007
2023-05-09T03:42:30.880Z,2.0599999999999996
2023-05-09T03:45:27.449Z,2.54
2023-05-09T03:48:23.017Z,2.6399999999999997
2023-05-09T03:51:18.549Z,2.32
2023-05-09T03:54:15.130Z,2.5
2023-05-09T03:57:10.660Z,2.8000000000000003
2023-05-09T04:00:08.238Z,2.46
2023-05-09T04:03:04.861Z,2.42
2023-05-09T04:06:00.383Z,2.74
2023-05-09T04:08:55.971Z,3.2600000000000002
2023-05-09T04:11:53.495Z,3.6
2023-05-09T04:14:51.020Z,4.26
2023-05-09T04:17:47.638Z,3.6
2023-05-09T04:20:44.127Z,3.1
2023-05-09T04:23:39.706Z,2.34
2023-05-09T04:26:38.304Z,2.44
2023-05-09T04:29:34.828Z,2.46
2023-05-09T04:32:30.423Z,2.16
2023-05-09T04:35:26.954Z,3.0799999999999996
2023-05-09T04:38:23.544Z,2.7600000000000002
2023-05-09T04:41:19.085Z,2.7400000000000007
2023-05-09T04:44:14.647Z,2.5
2023-05-09T04:47:10.180Z,2.5
2023-05-09T04:50:06.771Z,2.32
2023-05-09T04:53:02.265Z,2.7399999999999998
2023-05-09T04:55:57.866Z,3.34
2023-05-09T04:58:53.453Z,2.96
2023-05-09T05:01:50.054Z,2.44
2023-05-09T05:04:45.579Z,2.46
2023-05-09T05:07:41.127Z,2.7399999999999998
2023-05-09T05:10:37.659Z,2.54
2023-05-09T05:13:33.220Z,2.34
2023-05-09T05:16:29.845Z,2.72
2023-05-09T05:19:25.378Z,2.2399999999999998
2023-05-09T05:22:20.925Z,2.7400000000000007
2023-05-09T05:25:17.672Z,2.52
2023-05-09T05:28:13.062Z,2.5200000000000005
2023-05-09T05:31:08.654Z,3.4200000000000004
2023-05-09T05:34:04.175Z,2.2399999999999998
2023-05-09T05:37:00.724Z,2.94
2023-05-09T05:39:56.269Z,3.3200000000000003
2023-05-09T05:42:51.846Z,2.6800000000000006
2023-05-09T05:45:47.429Z,2.5
2023-05-09T05:48:42.972Z,2.36
2023-05-09T05:51:38.559Z,2.38
2023-05-09T05:54:34.098Z,3.3
2023-05-09T05:57:29.640Z,2.82
2023-05-09T06:00:25.215Z,2.66
2023-05-09T06:03:20.844Z,2.46
2023-05-09T06:06:18.316Z,2.42
2023-05-09T06:09:14.896Z,2.92
2023-05-09T06:12:11.448Z,2.8600000000000003
2023-05-09T06:15:07.988Z,2.54
2023-05-09T06:18:04.551Z,2.7800000000000002
2023-05-09T06:21:00.085Z,2.7800000000000002
2023-05-09T06:26:54.260Z,2.42
2023-05-09T06:29:51.781Z,2.66
2023-05-09T06:32:50.378Z,2.3600000000000003
2023-05-09T06:35:46.894Z,2.94
2023-05-09T06:38:42.466Z,2.8200000000000003
2023-05-09T06:41:37.988Z,2.2199999999999998
2023-05-09T06:44:33.624Z,2.7800000000000002
2023-05-09T06:47:29.199Z,2.54
2023-05-09T06:50:24.717Z,2.6199999999999997
2023-05-09T06:53:20.279Z,2.46
2023-05-09T06:56:16.690Z,2.62
2023-05-09T06:59:13.394Z,2.7800000000000002
2023-05-09T07:02:08.992Z,2.8000000000000003
2023-05-09T07:05:05.555Z,2.7800000000000002
2023-05-09T07:08:01.091Z,3.3
2023-05-09T07:10:58.654Z,2.8000000000000003
2023-05-09T07:13:54.230Z,3.1
2023-05-09T07:16:49.886Z,2.8400000000000003
2023-05-09T07:19:45.347Z,2.6399999999999997
2023-05-09T07:22:40.997Z,3.06
2023-05-09T07:25:38.485Z,2.6399999999999997
2023-05-09T07:28:39.003Z,2.92
2023-05-09T07:31:37.233Z,2.94
2023-05-09T07:34:33.116Z,3.0799999999999996
2023-05-09T07:37:29.663Z,3.1
2023-05-09T07:40:25.228Z,2.6
2023-05-09T07:43:21.774Z,2.88
2023-05-09T07:46:18.391Z,2.8600000000000003
2023-05-09T07:49:13.928Z,2.6399999999999997
2023-05-09T07:52:09.443Z,3.12
2023-05-09T07:55:06.035Z,2.44
2023-05-09T07:58:01.615Z,2.6
2023-05-09T08:00:58.156Z,3.12
2023-05-09T08:03:53.867Z,2.72
2023-05-09T08:06:49.257Z,2.8400000000000003
2023-05-09T08:09:44.834Z,2.54
2023-05-09T08:12:40.419Z,2.5599999999999996
2023-05-09T08:15:37.005Z,2.46
2023-05-09T08:18:32.529Z,3.3600000000000003
2023-05-09T08:21:30.065Z,2.38
2023-05-09T08:24:26.625Z,2.36
2023-05-09T08:27:22.208Z,2.42
2023-05-09T08:30:17.768Z,2.7600000000000007
2023-05-09T08:33:13.485Z,2.94
2023-05-09T08:36:08.869Z,3.1399999999999997
2023-05-09T08:39:04.450Z,3.2199999999999998
2023-05-09T08:42:01.134Z,2.6
2023-05-09T08:44:58.618Z,3.38
2023-05-09T08:47:55.169Z,3.0799999999999996
2023-05-09T08:50:52.670Z,2.82
2023-05-09T08:53:49.257Z,2.82
2023-05-09T08:56:45.802Z,2.82
2023-05-09T08:59:42.342Z,2.62
2023-05-09T09:02:40.936Z,2.7800000000000002
2023-05-09T09:05:42.638Z,3.06
2023-05-09T09:08:40.000Z,3.22
2023-05-09T09:11:36.568Z,2.16
2023-05-09T09:14:35.154Z,3.1
2023-05-09T09:17:32.725Z,3.3
2023-05-09T09:20:33.258Z,3.5200000000000005
2023-05-09T09:23:32.769Z,2.98
2023-05-09T09:26:31.360Z,3.4799999999999995
2023-05-09T09:29:29.892Z,3.38
2023-05-09T09:32:31.450Z,2.8400000000000003
2023-05-09T09:35:38.974Z,2.8200000000000003
2023-05-09T09:38:40.533Z,2.88
2023-05-09T09:41:37.056Z,3.2400000000000007
2023-05-09T09:44:38.628Z,2.92
2023-05-09T09:47:34.250Z,3.62
2023-05-09T09:50:29.703Z,3.38
2023-05-09T09:53:30.475Z,3.1800000000000006
2023-05-09T09:56:30.805Z,3.4
2023-05-09T09:59:31.439Z,3.0799999999999996
2023-05-09T10:02:29.008Z,3.3
2023-05-09T10:05:25.505Z,3.46
2023-05-09T10:08:24.027Z,3.44
2023-05-09T10:11:20.669Z,2.96
2023-05-09T10:14:18.176Z,2.98
2023-05-09T10:17:15.800Z,3.2600000000000002
2023-05-09T10:20:17.378Z,3.18
2023-05-09T10:23:15.839Z,2.66
2023-05-09T10:26:17.339Z,2.68
2023-05-09T10:29:20.946Z,1.9
2023-05-09T10:32:21.494Z,2.48
2023-05-09T10:35:20.046Z,1.8199999999999998
2023-05-09T10:38:16.603Z,1.72
2023-05-09T10:41:14.150Z,1.98
2023-05-09T10:44:10.680Z,2.0599999999999996
2023-05-09T10:47:07.341Z,1.92
2023-05-09T10:50:04.822Z,1.6199999999999999
2023-05-09T10:53:05.357Z,2.04
2023-05-09T10:56:06.898Z,1.6800000000000002
2023-05-09T10:59:04.473Z,1.6800000000000002
2023-05-09T11:02:03.073Z,2
2023-05-09T11:05:08.563Z,2.66
2023-05-09T11:08:15.101Z,2
2023-05-09T11:11:21.640Z,2.1
2023-05-09T11:14:23.199Z,1.72
2023-05-09T11:17:31.742Z,1.86
2023-05-09T11:20:34.266Z,1.86
2023-05-09T11:23:31.761Z,1.86
2023-05-09T11:26:38.332Z,1.8199999999999998
2023-05-09T11:32:47.439Z,1.6800000000000002
2023-05-09T11:35:45.982Z,1.64
2023-05-09T11:38:42.527Z,1.5
2023-05-09T11:41:40.036Z,2.3200000000000003
2023-05-09T11:44:36.673Z,1.52
2023-05-09T11:47:36.247Z,1.9
2023-05-09T11:50:31.787Z,1.8399999999999999
2023-05-09T11:53:27.323Z,1.6600000000000001
2023-05-09T11:56:22.916Z,1.7
2023-05-09T11:59:20.451Z,1.5599999999999998
2023-05-09T12:02:17.026Z,1.3400000000000003
2023-05-09T12:05:13.664Z,1.7
2023-05-09T12:08:10.118Z,1.36
2023-05-09T12:11:11.694Z,1.78
2023-05-09T12:14:07.208Z,1.5599999999999998
2023-05-09T12:17:03.771Z,1.1800000000000002
2023-05-09T12:20:01.342Z,1.52
2023-05-09T12:22:56.890Z,1.9599999999999997
2023-05-09T12:25:55.492Z,1.42
2023-05-09T12:28:52.016Z,1.52
2023-05-09T12:31:49.589Z,1.36
2023-05-09T12:34:47.138Z,1.44
2023-05-09T12:37:52.645Z,1.78
2023-05-09T12:40:48.197Z,2
2023-05-09T12:43:47.742Z,2.16
2023-05-09T12:46:48.401Z,1.8400000000000003
2023-05-09T12:49:49.877Z,1.9600000000000002
2023-05-09T12:53:02.022Z,2.04
2023-05-09T12:55:54.980Z,1.3
2023-05-09T12:58:52.568Z,1.6199999999999999
2023-05-09T13:01:53.088Z,1.6
2023-05-09T13:04:56.560Z,1.6800000000000002
2023-05-09T13:07:57.199Z,1.6600000000000001
2023-05-09T13:11:07.828Z,1.7600000000000002
2023-05-09T13:13:59.245Z,1.8
2023-05-09T13:16:55.792Z,1.46
2023-05-09T13:19:51.373Z,1.3199999999999998
2023-05-09T13:22:47.948Z,1.3199999999999998
2023-05-09T13:25:44.502Z,1.3199999999999998
2023-05-09T13:28:40.054Z,1.52
2023-05-09T13:31:35.598Z,1.1400000000000001
2023-05-09T13:34:32.147Z,1.0399999999999998
2023-05-09T13:37:27.720Z,1.3
2023-05-09T13:40:23.306Z,0.96
2023-05-09T13:43:22.824Z,1.2799999999999998
2023-05-09T13:46:18.509Z,1.0399999999999998
2023-05-09T13:49:14.002Z,0.9800000000000001
2023-05-09T13:52:10.552Z,1.46
2023-05-09T13:55:08.092Z,1.3
2023-05-09T13:58:03.599Z,0.9199999999999999
2023-05-09T14:00:59.194Z,1.0399999999999998
2023-05-09T14:03:54.779Z,1.6400000000000001
2023-05-09T14:06:51.321Z,1.6
2023-05-09T14:09:48.167Z,1.1400000000000001
2023-05-09T14:12:47.552Z,1.02
2023-05-09T14:15:43.001Z,1.52
2023-05-09T14:18:38.554Z,1.52
2023-05-09T14:21:34.130Z,1.0399999999999998
2023-05-09T14:24:30.730Z,1.22
2023-05-09T14:27:27.271Z,1.46
2023-05-09T14:30:22.821Z,1.36
2023-05-09T14:33:19.366Z,1.46
2023-05-09T14:36:15.912Z,1.3800000000000001
2023-05-09T14:39:12.495Z,1.5599999999999998
2023-05-09T14:42:11.031Z,1.42
2023-05-09T14:45:10.619Z,1.3
2023-05-09T14:48:06.218Z,1.2
2023-05-09T14:51:02.709Z,1.4
2023-05-09T14:53:59.310Z,1.5
2023-05-09T14:56:55.815Z,1.3400000000000003
2023-05-09T14:59:51.384Z,1.48
2023-05-09T15:02:47.033Z,1.5799999999999998
2023-05-09T15:05:44.505Z,1.3199999999999998
2023-05-09T15:08:41.071Z,1.58
2023-05-09T15:11:47.642Z,1.56
2023-05-09T15:14:41.152Z,1.58
2023-05-09T15:17:36.761Z,1.6600000000000001
2023-05-09T15:20:32.294Z,1.6800000000000002
2023-05-09T15:23:27.996Z,1.86
2023-05-09T15:26:23.413Z,1.7600000000000002
2023-05-09T15:29:21.979Z,1.4
2023-05-09T15:32:17.551Z,2.04
2023-05-09T15:35:14.080Z,1.58
2023-05-09T15:38:11.636Z,1.52
2023-05-09T15:41:07.202Z,1.94
2023-05-09T15:44:02.745Z,1.8
2023-05-09T15:46:59.325Z,1.94
2023-05-09T15:49:54.898Z,1.8
2023-05-09T15:52:52.420Z,1.8
2023-05-09T15:55:49.003Z,1.9
2023-05-09T15:58:45.517Z,1.92
2023-05-09T16:01:44.148Z,1.7
2023-05-09T16:04:41.679Z,1.8199999999999998
2023-05-09T16:07:37.423Z,1.5
2023-05-09T16:10:33.809Z,1.5599999999999998
2023-05-09T16:13:29.431Z,1.6199999999999999
2023-05-09T16:16:25.962Z,1.6800000000000002
2023-05-09T16:19:22.495Z,1.8
2023-05-09T16:22:19.046Z,1.9600000000000002
2023-05-09T16:25:16.584Z,1.6600000000000001
2023-05-09T16:28:13.137Z,2.0599999999999996
2023-05-09T16:31:08.765Z,1.78
2023-05-09T16:34:04.333Z,2.2
2023-05-09T16:37:02.884Z,1.8400000000000003
2023-05-09T16:40:00.494Z,2.28
2023-05-09T16:42:55.990Z,2.3600000000000003
2023-05-09T16:45:52.545Z,2.2600000000000002
2023-05-09T16:48:51.080Z,2.74
2023-05-09T16:51:46.615Z,2.7400000000000007
2023-05-09T16:54:42.179Z,3
2023-05-09T16:57:37.782Z,2.32
2023-05-09T17:00:33.273Z,1.7
2023-05-09T17:03:29.873Z,1.4599999999999997
2023-05-09T17:06:26.419Z,1.5
2023-05-09T17:09:22.991Z,1.6400000000000001
2023-05-09T17:12:20.536Z,1.9
2023-05-09T17:15:17.053Z,2
2023-05-09T17:18:15.259Z,2.0599999999999996
2023-05-09T17:21:14.203Z,3.7400000000000007
2023-05-09T17:24:09.776Z,4.46
2023-05-09T17:27:05.331Z,5.08
2023-05-09T17:30:01.876Z,3.04
2023-05-09T17:32:58.501Z,2.0599999999999996
2023-05-09T17:35:55.015Z,1.12
2023-05-09T17:38:51.544Z,1.7399999999999998
2023-05-09T17:41:47.081Z,1.7
2023-05-09T17:44:44.273Z,2.8000000000000003
2023-05-09T17:47:41.316Z,1.6199999999999999
2023-05-09T17:50:39.786Z,1.6
2023-05-09T17:53:35.336Z,2.2
2023-05-09T17:56:30.941Z,1.6199999999999999
2023-05-09T17:59:28.493Z,2.02
2023-05-09T18:02:25.113Z,2.16
2023-05-09T18:05:23.344Z,3.28
2023-05-09T18:08:19.147Z,1.8
2023-05-09T18:11:15.712Z,2.7800000000000002
2023-05-09T18:14:12.279Z,2
2023-05-09T18:17:07.810Z,1.9
2023-05-09T18:20:04.395Z,1.46
2023-05-09T18:23:00.942Z,1.8199999999999998
2023-05-09T18:25:56.493Z,1.72
2023-05-09T18:28:56.047Z,1.92
2023-05-09T18:31:51.669Z,2.2
2023-05-09T18:34:48.190Z,2.5
2023-05-09T18:37:43.752Z,2.24
2023-05-09T18:40:43.311Z,2.7600000000000007
2023-05-09T18:43:45.940Z,2.1800000000000006
2023-05-09T18:46:41.434Z,3.1800000000000006
2023-05-09T18:49:38.976Z,2.2800000000000002
2023-05-09T18:52:34.517Z,2.3
2023-05-09T18:55:32.086Z,2.1
2023-05-09T18:58:28.936Z,2.06
2023-05-09T19:01:25.291Z,2.32
2023-05-09T19:04:26.778Z,2.3
2023-05-09T19:07:23.292Z,1.72
2023-05-09T19:10:19.837Z,2.1
2023-05-09T19:13:16.542Z,1.8800000000000001
2023-05-09T19:16:12.987Z,1.98
2023-05-09T19:19:09.522Z,1.3400000000000003
2023-05-09T19:22:07.101Z,2
2023-05-09T19:25:05.634Z,3.2600000000000002
2023-05-09T19:28:01.255Z,2.12
2023-05-09T19:30:57.781Z,2.4799999999999995
2023-05-09T19:33:53.312Z,2.5799999999999996
2023-05-09T19:36:49.960Z,2.48
2023-05-09T19:39:45.480Z,2.1800000000000006
2023-05-09T19:42:41.986Z,1.6
2023-05-09T19:45:38.552Z,2.2
2023-05-09T19:48:41.122Z,2.2
2023-05-09T19:51:40.682Z,2.12
2023-05-09T19:54:36.187Z,1.6
2023-05-09T19:57:31.767Z,2.04
2023-05-09T20:00:28.363Z,1.6800000000000002
2023-05-09T20:03:23.973Z,1.92
2023-05-09T20:06:19.515Z,4.9
2023-05-09T20:09:21.080Z,4.0200000000000005
2023-05-09T20:12:17.559Z,2.54
2023-05-09T20:15:14.125Z,2.1399999999999997
2023-05-09T20:18:09.796Z,2.3600000000000003
2023-05-09T20:21:09.239Z,2.7600000000000002
2023-05-09T20:24:05.833Z,2.5799999999999996
2023-05-09T20:27:02.380Z,2.1399999999999997
2023-05-09T20:29:58.073Z,3.02
2023-05-09T20:32:53.503Z,2
2023-05-09T20:35:49.064Z,2.16
2023-05-09T20:38:44.601Z,2.46
2023-05-09T20:41:40.172Z,2.16
2023-05-09T20:44:37.746Z,2.04
2023-05-09T20:47:34.286Z,2.1
2023-05-09T20:50:29.845Z,2.1199999999999997
2023-05-09T20:53:27.428Z,2.6399999999999997
2023-05-09T20:56:23.953Z,2.8
2023-05-09T20:59:19.518Z,2.98
2023-05-09T21:02:15.148Z,2.56
2023-05-09T21:05:10.659Z,2.44
2023-05-09T21:08:06.199Z,3.0799999999999996
2023-05-09T21:11:02.826Z,2.7
2023-05-09T21:13:58.328Z,2.4
2023-05-09T21:16:57.928Z,2.7400000000000007
2023-05-09T21:19:53.417Z,2.3
2023-05-09T21:22:49.000Z,2.66
2023-05-09T21:25:44.555Z,3.22
2023-05-09T21:28:40.134Z,2.4
2023-05-09T21:31:36.838Z,2.54
2023-05-09T21:34:32.249Z,2.5
2023-05-09T21:37:28.842Z,2.1
2023-05-09T21:40:25.365Z,2.94
2023-05-09T21:43:21.962Z,3.04
2023-05-09T21:46:17.525Z,3.0599999999999996
2023-05-09T21:49:16.052Z,2.56
2023-05-09T21:52:11.597Z,2.92
2023-05-09T21:55:08.163Z,2.6
2023-05-09T21:58:03.687Z,2.96
2023-05-09T22:01:00.268Z,2.98
2023-05-09T22:03:56.842Z,3.04
2023-05-09T22:06:52.363Z,3.04
2023-05-09T22:09:47.993Z,2.5
2023-05-09T22:12:43.535Z,2.4799999999999995
2023-05-09T22:15:41.065Z,2.2199999999999998
2023-05-09T22:18:36.650Z,2.96
2023-05-09T22:21:32.163Z,2.26
2023-05-09T22:24:27.750Z,3
2023-05-09T22:27:23.299Z,2.6399999999999997
2023-05-09T22:30:19.909Z,2.2800000000000002
2023-05-09T22:33:15.488Z,2.7
2023-05-09T22:36:10.983Z,2.42
2023-05-09T22:39:06.565Z,2.34
2023-05-09T22:42:04.147Z,2.5599999999999996
2023-05-09T22:44:59.658Z,2.86
2023-05-09T22:47:55.235Z,2.4
2023-05-09T22:50:50.807Z,2.7600000000000007
2023-05-09T22:53:46.420Z,2.7600000000000007
2023-05-09T22:56:42.945Z,2.6399999999999997
2023-05-09T22:59:38.506Z,2.3
2023-05-09T23:02:34.181Z,2.9999999999999996
2023-05-09T23:05:29.616Z,2.9
2023-05-09T23:08:25.187Z,2.2399999999999998
2023-05-09T23:11:23.750Z,2.96
2023-05-09T23:14:19.290Z,2.7600000000000002
2023-05-09T23:17:14.872Z,2.44
2023-05-09T23:20:11.410Z,2.2600000000000002
2023-05-09T23:23:06.990Z,2.38
2023-05-09T23:26:02.557Z,2.16
2023-05-09T23:28:58.118Z,2.6
2023-05-09T23:31:53.685Z,2.5
2023-05-09T23:34:49.188Z,2.88
2023-05-09T23:37:44.804Z,2.7800000000000002
2023-05-09T23:40:43.341Z,2.52
2023-05-09T23:43:38.940Z,3.1799999999999997
2023-05-09T23:46:35.528Z,2.98
2023-05-09T23:49:31.054Z,2.84
2023-05-09T23:52:26.590Z,2.74
2023-05-09T23:55:22.203Z,2.9
2023-05-09T23:58:17.741Z,3.1
